Time;durP1;ratioP1;P1;durP2;ratioP2;P2;SDS_P1;SDS_P2;PMS_P1;PMS_P2;Temp;Humidity;BMP_temperature;BMP_pressure;BME280_temperature;BME280_humidity;BME280_pressure;Samples;Min_cycle;Max_cycle;Signal;HPM_P1;HPM_P2
2022/02/13 00:00:17;;;;;;;1238.23;200.07;;;1.50;99.90;;;;;;5134219;27;20470;-79
2022/02/13 00:02:46;;;;;;;597.63;74.70;;;1.50;99.90;;;;;;5133419;27;20487;-78
2022/02/13 00:05:14;;;;;;;860.90;151.67;;;1.50;99.90;;;;;;5133458;27;20451;-78
2022/02/13 00:07:43;;;;;;;432.27;75.40;;;1.50;99.90;;;;;;5133831;27;20534;-78
2022/02/13 00:10:13;;;;;;;406.23;62.30;;;1.50;99.90;;;;;;5133755;28;20466;-79
2022/02/13 00:12:43;;;;;;;1999.90;413.37;;;1.50;99.90;;;;;;5122923;27;20452;-79
2022/02/13 00:15:11;;;;;;;120.93;50.87;;;1.50;99.90;;;;;;5131068;28;20464;-78
2022/02/13 00:17:40;;;;;;;543.93;59.67;;;1.50;99.90;;;;;;5114448;28;20468;-79
2022/02/13 00:20:25;;;;;;;399.33;60.30;;;1.50;99.90;;;;;;5113509;28;20474;-83
2022/02/13 00:22:56;;;;;;;512.97;54.13;;;1.50;99.90;;;;;;5117804;28;20457;-79
2022/02/13 00:25:27;;;;;;;523.07;81.87;;;1.50;99.90;;;;;;5134340;27;20541;-78
2022/02/13 00:27:56;;;;;;;1999.90;356.17;;;1.50;99.90;;;;;;5133504;27;20442;-78
2022/02/13 00:30:26;;;;;;;466.57;60.90;;;1.50;99.90;;;;;;5133749;27;20495;-79
2022/02/13 00:32:56;;;;;;;217.97;66.47;;;1.50;99.90;;;;;;5118714;28;20987;-79
2022/02/13 00:35:26;;;;;;;475.27;72.03;;;1.50;99.90;;;;;;5127366;28;20533;-78
2022/02/13 00:37:54;;;;;;;373.40;50.67;;;1.50;99.90;;;;;;5133426;27;20487;-78
2022/02/13 00:40:22;;;;;;;411.03;71.73;;;1.50;99.90;;;;;;5135214;27;20454;-78
2022/02/13 00:42:50;;;;;;;407.57;108.50;;;1.50;99.90;;;;;;5134522;27;20482;-78
2022/02/13 00:45:20;;;;;;;376.20;67.03;;;1.50;99.90;;;;;;5134675;27;20446;-78
2022/02/13 00:47:48;;;;;;;1999.90;336.47;;;1.50;99.90;;;;;;5130643;28;20457;-78
2022/02/13 00:50:16;;;;;;;256.23;41.50;;;1.50;99.90;;;;;;5103410;28;20551;-79
2022/02/13 00:52:44;;;;;;;1999.90;430.80;;;1.50;99.90;;;;;;5098597;28;20448;-79
2022/02/13 00:55:13;;;;;;;1117.53;202.93;;;1.50;99.90;;;;;;5099354;28;20801;-79
2022/02/13 00:57:41;;;;;;;671.70;81.30;;;1.50;99.90;;;;;;5100485;28;20531;-78
2022/02/13 01:03:55;;;;;;;1927.23;233.33;;;1.50;99.90;;;;;;5101676;28;20461;-78
2022/02/13 01:06:25;;;;;;;305.23;64.33;;;1.50;99.90;;;;;;5100229;28;20441;-79
2022/02/13 01:08:53;;;;;;;375.30;53.23;;;1.50;99.90;;;;;;5100770;28;20535;-79
2022/02/13 01:11:21;;;;;;;291.70;36.77;;;1.50;99.90;;;;;;5099071;28;21069;-78
2022/02/13 01:13:50;;;;;;;314.40;29.47;;;1.50;99.90;;;;;;5099001;28;20953;-79
2022/02/13 01:16:20;;;;;;;658.73;84.57;;;1.50;99.90;;;;;;5100219;28;20528;-78
2022/02/13 01:18:50;;;;;;;249.10;37.40;;;1.60;99.90;;;;;;5099300;28;20488;-78
2022/02/13 01:21:18;;;;;;;386.77;56.77;;;1.50;99.90;;;;;;5098695;28;20476;-78
2022/02/13 01:23:46;;;;;;;389.73;69.97;;;1.50;99.90;;;;;;5115174;28;20490;-79
2022/02/13 01:26:15;;;;;;;1058.87;171.57;;;1.50;99.90;;;;;;5117752;28;20477;-79
2022/02/13 01:28:45;;;;;;;344.63;57.67;;;1.60;99.90;;;;;;5114340;28;20448;-78
2022/02/13 01:31:14;;;;;;;437.17;55.47;;;1.50;99.90;;;;;;5098285;28;20495;-78
2022/02/13 01:33:46;;;;;;;463.30;64.23;;;1.60;99.90;;;;;;5097888;28;20480;-78
2022/02/13 01:36:18;;;;;;;267.00;50.80;;;1.50;99.90;;;;;;5098066;28;20890;-79
2022/02/13 01:38:46;;;;;;;367.87;57.87;;;1.50;99.90;;;;;;5099728;28;20476;-79
2022/02/13 01:41:14;;;;;;;342.00;48.37;;;1.50;99.90;;;;;;5099884;28;20570;-79
2022/02/13 01:43:43;;;;;;;328.63;71.70;;;1.50;99.90;;;;;;5100412;28;20925;-79
2022/02/13 01:46:13;;;;;;;1635.53;258.23;;;1.50;99.90;;;;;;5100655;28;20478;-78
2022/02/13 01:48:44;;;;;;;379.60;56.80;;;1.50;99.90;;;;;;5101134;28;20814;-79
2022/02/13 01:51:12;;;;;;;193.90;53.13;;;1.50;99.90;;;;;;5115500;28;20486;-78
2022/02/13 01:53:46;;;;;;;483.63;62.27;;;1.50;99.90;;;;;;5115806;28;20868;-79
2022/02/13 01:56:14;;;;;;;411.47;59.37;;;1.50;99.90;;;;;;5097372;28;20938;-78
2022/02/13 01:58:44;;;;;;;496.43;51.33;;;1.50;99.90;;;;;;5098220;28;20448;-78
2022/02/13 02:01:12;;;;;;;379.57;51.57;;;1.50;99.90;;;;;;5096489;28;20877;-79
2022/02/13 02:03:45;;;;;;;441.57;66.47;;;1.50;99.90;;;;;;5099036;28;20437;-78
2022/02/13 02:06:14;;;;;;;925.80;157.27;;;1.50;99.90;;;;;;5097136;28;20535;-79
2022/02/13 02:08:43;;;;;;;556.27;82.90;;;1.50;99.90;;;;;;5105097;28;20451;-78
2022/02/13 02:11:11;;;;;;;490.33;60.53;;;1.50;99.90;;;;;;5094367;28;20893;-78
2022/02/13 02:13:39;;;;;;;326.73;58.33;;;1.50;99.90;;;;;;5095796;28;20440;-78
2022/02/13 02:16:08;;;;;;;1244.07;200.90;;;1.50;99.90;;;;;;5094726;28;20450;-77
2022/02/13 02:18:37;;;;;;;1245.90;218.77;;;1.50;99.90;;;;;;5094339;28;20506;-78
2022/02/13 02:21:10;;;;;;;453.30;83.10;;;1.50;99.90;;;;;;5094204;28;21044;-77
2022/02/13 02:23:40;;;;;;;553.23;66.60;;;1.40;99.90;;;;;;5095788;28;20424;-78
2022/02/13 02:26:08;;;;;;;1999.90;353.20;;;1.40;99.90;;;;;;5094115;28;20495;-78
2022/02/13 02:28:37;;;;;;;493.60;73.07;;;1.40;99.90;;;;;;5095552;28;20543;-78
2022/02/13 02:31:05;;;;;;;1597.43;236.17;;;1.40;99.90;;;;;;5097859;28;20475;-78
2022/02/13 02:33:33;;;;;;;1245.43;173.23;;;1.40;99.90;;;;;;5114202;28;20483;-78
2022/02/13 02:36:01;;;;;;;1999.90;384.00;;;1.40;99.90;;;;;;5114428;28;20446;-78
2022/02/13 02:38:56;;;;;;;339.10;57.27;;;1.40;99.90;;;;;;5115807;28;20455;-78
2022/02/13 02:41:36;;;;;;;1914.40;220.33;;;1.40;99.90;;;;;;5116335;28;20443;-78
2022/02/13 02:44:05;;;;;;;341.40;71.47;;;1.40;99.90;;;;;;5116585;28;20443;-78
2022/02/13 02:46:33;;;;;;;498.30;59.43;;;1.40;99.90;;;;;;5118187;28;20444;-78
2022/02/13 02:49:01;;;;;;;461.60;81.60;;;1.40;99.90;;;;;;5116639;28;20454;-78
2022/02/13 02:51:32;;;;;;;134.17;41.17;;;1.40;99.90;;;;;;5103872;28;20498;-78
2022/02/13 02:54:08;;;;;;;569.80;68.27;;;1.40;99.90;;;;;;5097672;28;20501;-79
2022/02/13 02:56:51;;;;;;;;;;;;;;;;;;;;;
2022/02/13 02:59:29;;;;;;;452.37;56.30;;;1.40;99.90;;;;;;5095562;28;20501;-78
2022/02/13 03:01:59;;;;;;;445.83;57.63;;;1.50;99.90;;;;;;5102631;28;21005;-78
2022/02/13 03:04:29;;;;;;;506.20;71.73;;;1.40;99.90;;;;;;5116279;28;20888;-78
2022/02/13 03:06:57;;;;;;;1999.90;384.07;;;1.40;99.90;;;;;;5115944;28;20447;-78
2022/02/13 03:09:25;;;;;;;531.90;57.43;;;1.40;99.90;;;;;;5115676;28;20816;-78
2022/02/13 03:11:58;;;;;;;398.20;63.40;;;1.40;99.90;;;;;;5115832;28;20531;-78
2022/02/13 03:14:26;;;;;;;1999.90;344.67;;;1.30;99.90;;;;;;5117445;28;20474;-78
2022/02/13 03:16:54;;;;;;;1465.23;247.23;;;1.40;99.90;;;;;;5115474;28;20440;-78
2022/02/13 03:19:23;;;;;;;383.13;55.13;;;1.30;99.90;;;;;;5107479;28;20448;-78
2022/02/13 03:21:51;;;;;;;587.60;54.57;;;1.30;99.90;;;;;;5112693;28;20478;-78
2022/02/13 03:24:19;;;;;;;526.93;69.10;;;1.30;99.90;;;;;;5116956;28;20795;-78
2022/02/13 03:26:48;;;;;;;500.73;53.30;;;1.30;99.90;;;;;;5117160;28;20436;-78
2022/02/13 03:29:18;;;;;;;618.73;76.30;;;1.30;99.90;;;;;;5094950;28;20484;-78
2022/02/13 03:31:46;;;;;;;219.47;29.60;;;1.30;99.90;;;;;;5100619;28;20458;-78
2022/02/13 03:34:17;;;;;;;505.73;71.27;;;1.30;99.90;;;;;;5116717;28;20450;-78
2022/02/13 03:36:46;;;;;;;453.37;37.20;;;1.30;99.90;;;;;;5101320;28;20524;-78
2022/02/13 03:39:14;;;;;;;313.77;45.27;;;1.30;99.90;;;;;;5094552;28;20557;-78
2022/02/13 03:41:42;;;;;;;1748.50;211.63;;;1.30;99.90;;;;;;5094162;28;20475;-78
2022/02/13 03:44:10;;;;;;;1999.90;369.33;;;1.30;99.90;;;;;;5092887;28;20488;-77
2022/02/13 03:46:40;;;;;;;490.40;57.47;;;1.30;99.90;;;;;;5092762;28;20466;-77
2022/02/13 03:49:09;;;;;;;658.70;67.20;;;1.30;99.90;;;;;;5093600;28;20462;-77
2022/02/13 03:51:37;;;;;;;460.87;112.07;;;1.30;99.90;;;;;;5095819;28;20963;-77
2022/02/13 03:54:07;;;;;;;1999.90;391.53;;;1.30;99.90;;;;;;5092998;28;20535;-77
2022/02/13 03:56:35;;;;;;;422.70;94.37;;;1.30;99.90;;;;;;5094254;28;20497;-77
2022/02/13 04:02:55;;;;;;;1999.90;250.10;;;1.30;99.90;;;;;;5096270;28;20417;-77
2022/02/13 04:05:24;;;;;;;534.13;50.50;;;1.30;99.90;;;;;;5095552;28;20440;-78
2022/02/13 04:07:53;;;;;;;534.50;55.67;;;1.30;99.90;;;;;;5096896;28;20885;-78
2022/02/13 04:10:21;;;;;;;472.40;38.13;;;1.30;99.90;;;;;;5095184;28;20469;-78
2022/02/13 04:12:49;;;;;;;415.43;47.83;;;1.20;99.90;;;;;;5094504;28;20465;-78
2022/02/13 04:15:17;;;;;;;408.80;45.77;;;1.20;99.90;;;;;;5094726;28;20551;-78
2022/02/13 04:17:48;;;;;;;1999.90;287.87;;;1.20;99.90;;;;;;5092550;28;20506;-77
2022/02/13 04:20:18;;;;;;;405.47;47.63;;;1.20;99.90;;;;;;5092081;28;20837;-77
2022/02/13 04:22:46;;;;;;;515.90;43.07;;;1.20;99.90;;;;;;5099039;28;20441;-77
2022/02/13 04:25:15;;;;;;;625.53;87.83;;;1.20;99.90;;;;;;5111675;28;20447;-77
2022/02/13 04:27:54;;;;;;;469.63;58.40;;;1.20;99.90;;;;;;5116474;28;20552;-77
2022/02/13 04:30:50;;;;;;;520.13;73.30;;;1.20;99.90;;;;;;5098463;28;20473;-77
2022/02/13 04:33:20;;;;;;;93.67;54.40;;;1.20;99.90;;;;;;5096140;28;20494;-77
2022/02/13 04:35:49;;;;;;;640.10;51.17;;;1.20;99.90;;;;;;5116237;28;20557;-77
2022/02/13 04:38:18;;;;;;;701.03;99.87;;;1.20;99.90;;;;;;5116101;27;20534;-77
2022/02/13 04:40:46;;;;;;;416.33;46.83;;;1.20;99.90;;;;;;5115890;28;20482;-77
2022/02/13 04:43:14;;;;;;;318.30;24.00;;;1.20;99.90;;;;;;5116509;28;20444;-77
2022/02/13 04:45:42;;;;;;;1999.90;245.53;;;1.20;99.90;;;;;;5097220;28;20439;-77
2022/02/13 04:48:12;;;;;;;520.07;57.00;;;1.20;99.90;;;;;;5096138;28;20455;-77
2022/02/13 04:50:41;;;;;;;1999.90;209.87;;;1.20;99.90;;;;;;5097238;28;20451;-77
2022/02/13 04:53:10;;;;;;;1901.80;199.73;;;1.20;99.90;;;;;;5095706;28;20448;-77
2022/02/13 04:55:38;;;;;;;413.50;40.47;;;1.20;99.90;;;;;;5097501;28;20454;-77
2022/02/13 04:58:06;;;;;;;547.10;86.90;;;1.20;99.90;;;;;;5097009;28;20447;-78
2022/02/13 05:00:35;;;;;;;246.63;55.03;;;1.20;99.90;;;;;;5096777;28;20563;-77
2022/02/13 05:03:05;;;;;;;385.47;49.10;;;1.20;99.90;;;;;;5097333;28;20429;-78
2022/02/13 05:05:36;;;;;;;629.70;99.03;;;1.10;99.90;;;;;;5095366;28;20440;-77
2022/02/13 05:08:06;;;;;;;579.83;40.70;;;1.20;99.90;;;;;;5098572;28;20869;-77
2022/02/13 05:10:37;;;;;;;377.63;32.67;;;1.20;99.90;;;;;;5117828;28;20459;-77
2022/02/13 05:13:05;;;;;;;1934.43;133.13;;;1.20;99.90;;;;;;5106474;28;20880;-78
2022/02/13 05:15:34;;;;;;;462.27;55.10;;;1.20;99.90;;;;;;5100268;28;20440;-78
2022/02/13 05:18:02;;;;;;;401.67;48.03;;;1.20;99.90;;;;;;5097579;28;20510;-78
2022/02/13 05:20:30;;;;;;;459.50;40.83;;;1.20;99.90;;;;;;5098216;28;20460;-78
2022/02/13 05:22:58;;;;;;;35.83;24.17;;;1.20;99.90;;;;;;5101517;28;20451;-77
2022/02/13 05:25:31;;;;;;;77.60;24.23;;;1.20;99.90;;;;;;5098071;28;20933;-78
2022/02/13 05:27:59;;;;;;;649.07;47.47;;;1.10;99.90;;;;;;5097025;28;20456;-78
2022/02/13 05:30:27;;;;;;;21.60;15.27;;;1.20;99.90;;;;;;5096576;28;20464;-77
2022/02/13 05:32:55;;;;;;;161.47;17.90;;;1.20;99.90;;;;;;5096663;28;20476;-78
2022/02/13 05:35:25;;;;;;;1669.90;112.30;;;1.10;99.90;;;;;;5096146;28;20828;-78
2022/02/13 05:37:53;;;;;;;520.13;45.13;;;1.10;99.90;;;;;;5096700;28;20456;-78
2022/02/13 05:40:22;;;;;;;327.93;23.17;;;1.10;99.90;;;;;;5098247;28;20464;-78
2022/02/13 05:42:52;;;;;;;622.37;53.63;;;1.10;99.90;;;;;;5098609;28;20949;-78
2022/02/13 05:45:24;;;;;;;570.77;54.43;;;1.10;99.90;;;;;;5098960;28;20456;-78
2022/02/13 05:47:52;;;;;;;522.27;39.70;;;1.10;99.90;;;;;;5096868;28;20444;-78
2022/02/13 05:50:21;;;;;;;494.77;58.90;;;1.10;99.90;;;;;;5099774;28;20823;-78
2022/02/13 05:52:51;;;;;;;394.27;30.73;;;1.10;99.90;;;;;;5116965;28;20838;-78
2022/02/13 05:55:20;;;;;;;534.73;35.53;;;1.10;99.90;;;;;;5117792;28;20504;-77
2022/02/13 05:57:48;;;;;;;441.30;32.53;;;1.10;99.90;;;;;;5116589;28;20469;-78
2022/02/13 06:00:18;;;;;;;398.53;39.50;;;1.00;99.90;;;;;;5100780;28;20474;-77
2022/02/13 06:02:47;;;;;;;397.63;28.57;;;1.00;99.90;;;;;;5096579;28;20547;-77
2022/02/13 06:05:15;;;;;;;284.73;47.00;;;1.00;99.90;;;;;;5100171;28;20466;-78
2022/02/13 06:07:44;;;;;;;365.93;45.00;;;1.00;99.90;;;;;;5114567;28;20500;-77
2022/02/13 06:10:14;;;;;;;320.70;27.40;;;1.00;99.90;;;;;;5093930;28;20934;-77
2022/02/13 06:12:42;;;;;;;650.83;50.07;;;1.10;99.90;;;;;;5095113;28;20835;-77
2022/02/13 06:15:12;;;;;;;302.70;24.37;;;1.00;99.90;;;;;;5093501;28;20448;-77
2022/02/13 06:17:41;;;;;;;411.97;26.83;;;1.00;99.90;;;;;;5095251;28;20437;-77
2022/02/13 06:20:11;;;;;;;318.03;20.23;;;1.00;99.90;;;;;;5093655;28;20494;-77
2022/02/13 06:22:39;;;;;;;375.67;36.83;;;1.00;99.90;;;;;;5094354;28;20464;-76
2022/02/13 06:25:09;;;;;;;1356.70;110.07;;;1.00;99.90;;;;;;5094552;28;20527;-76
2022/02/13 06:27:37;;;;;;;633.87;49.20;;;1.00;99.90;;;;;;5094591;28;20452;-77
2022/02/13 06:30:06;;;;;;;1737.63;111.73;;;1.00;99.90;;;;;;5093107;28;20460;-77
2022/02/13 06:32:34;;;;;;;323.67;33.70;;;1.00;99.90;;;;;;5094871;28;20429;-77
2022/02/13 06:35:05;;;;;;;277.97;21.77;;;1.00;99.90;;;;;;5093141;28;21040;-77
2022/02/13 06:37:33;;;;;;;353.27;27.83;;;1.00;99.90;;;;;;5092966;28;20539;-77
2022/02/13 06:40:01;;;;;;;1144.87;84.37;;;1.00;99.90;;;;;;5093050;28;20472;-77
2022/02/13 06:42:30;;;;;;;246.23;25.80;;;1.00;99.90;;;;;;5092718;28;20510;-77
2022/02/13 06:44:59;;;;;;;229.17;19.23;;;1.10;99.90;;;;;;5094485;28;20541;-77
2022/02/13 06:47:27;;;;;;;1040.70;76.47;;;1.00;99.90;;;;;;5092461;28;20540;-77
2022/02/13 06:49:55;;;;;;;571.87;51.77;;;1.00;99.90;;;;;;5092761;28;20464;-77
2022/02/13 06:52:25;;;;;;;1550.43;103.27;;;1.00;99.90;;;;;;5092826;28;20442;-77
2022/02/13 06:54:53;;;;;;;447.00;40.67;;;1.00;99.90;;;;;;5092975;28;20487;-77
2022/02/13 06:57:21;;;;;;;412.47;35.93;;;1.00;99.90;;;;;;5092806;28;20968;-76
2022/02/13 06:59:53;;;;;;;1273.63;89.37;;;1.00;99.90;;;;;;5094106;28;20988;-77
2022/02/13 07:02:21;;;;;;;412.47;34.90;;;1.00;99.90;;;;;;5093352;28;20475;-77
2022/02/13 07:04:49;;;;;;;254.37;40.43;;;1.00;99.90;;;;;;5095692;28;20471;-78
2022/02/13 07:07:17;;;;;;;586.57;51.13;;;1.00;99.90;;;;;;5102426;28;20477;-78
2022/02/13 07:09:47;;;;;;;274.90;24.23;;;1.00;99.90;;;;;;5094077;28;20464;-77
2022/02/13 07:12:15;;;;;;;449.67;56.07;;;1.00;99.90;;;;;;5093512;28;20442;-77
2022/02/13 07:14:43;;;;;;;205.67;23.63;;;1.00;99.90;;;;;;5093438;28;20455;-77
2022/02/13 07:17:11;;;;;;;139.63;16.57;;;1.00;99.90;;;;;;5093331;28;20555;-77
2022/02/13 07:19:40;;;;;;;103.23;20.10;;;1.10;99.90;;;;;;5095363;28;20522;-78
2022/02/13 07:22:08;;;;;;;491.03;41.73;;;1.00;99.90;;;;;;5093502;28;20468;-78
2022/02/13 07:24:40;;;;;;;227.93;22.80;;;1.10;99.90;;;;;;5098162;28;20485;-78
2022/02/13 07:27:12;;;;;;;431.47;69.73;;;1.10;99.90;;;;;;5113114;28;20447;-77
2022/02/13 07:29:40;;;;;;;225.93;27.13;;;1.10;99.90;;;;;;5113110;28;20531;-78
2022/02/13 07:32:11;;;;;;;298.10;26.07;;;1.10;99.90;;;;;;5114608;28;20429;-77
2022/02/13 07:34:39;;;;;;;165.40;16.43;;;1.20;99.90;;;;;;5112885;28;20536;-77
2022/02/13 07:37:12;;;;;;;193.47;21.10;;;1.20;99.90;;;;;;5112978;28;20833;-77
2022/02/13 07:39:41;;;;;;;169.77;20.17;;;1.20;99.90;;;;;;5103589;28;20533;-77
2022/02/13 07:42:11;;;;;;;125.27;14.70;;;1.30;99.90;;;;;;5092189;28;20518;-77
2022/02/13 07:44:40;;;;;;;288.27;43.70;;;1.30;99.90;;;;;;5095492;28;20941;-77
2022/02/13 07:47:08;;;;;;;242.00;28.10;;;1.40;99.90;;;;;;5112630;28;20462;-77
2022/02/13 07:49:37;;;;;;;129.77;25.80;;;1.40;99.90;;;;;;5114061;28;20463;-77
2022/02/13 07:52:06;;;;;;;333.30;27.33;;;1.50;99.90;;;;;;5093422;28;20793;-77
2022/02/13 07:54:34;;;;;;;233.63;30.60;;;1.50;99.90;;;;;;5093414;28;20441;-77
2022/02/13 07:57:04;;;;;;;260.97;25.47;;;1.60;99.90;;;;;;5092458;28;20557;-77
2022/02/13 07:59:34;;;;;;;858.03;66.50;;;1.70;99.90;;;;;;5092767;28;20469;-77
2022/02/13 08:02:02;;;;;;;531.17;52.37;;;1.70;99.90;;;;;;5099105;28;20448;-77
2022/02/13 08:04:30;;;;;;;115.63;31.27;;;1.80;99.90;;;;;;5099528;28;20482;-77
2022/02/13 08:06:58;;;;;;;277.27;28.47;;;1.90;99.90;;;;;;5116644;28;20487;-77
2022/02/13 08:09:27;;;;;;;531.83;47.97;;;1.90;99.90;;;;;;5116670;28;20435;-77
2022/02/13 08:11:55;;;;;;;424.47;42.13;;;2.00;99.90;;;;;;5116530;28;20462;-77
2022/02/13 08:14:25;;;;;;;479.73;46.30;;;2.10;99.90;;;;;;5116464;28;20516;-77
2022/02/13 08:16:54;;;;;;;443.20;53.03;;;2.20;99.90;;;;;;5115696;28;20462;-76
2022/02/13 08:19:40;;;;;;;603.37;43.67;;;2.20;99.90;;;;;;5103803;28;20459;-77
2022/02/13 08:22:09;;;;;;;591.33;76.00;;;2.30;99.90;;;;;;5095495;28;20874;-77
2022/02/13 08:24:37;;;;;;;318.63;32.23;;;2.40;99.90;;;;;;5115907;28;21030;-77
2022/02/13 08:27:06;;;;;;;324.40;27.97;;;2.50;99.90;;;;;;5116091;28;20964;-77
2022/02/13 08:29:34;;;;;;;250.03;19.40;;;2.60;99.90;;;;;;5117149;27;20459;-77
2022/02/13 08:32:05;;;;;;;326.10;30.57;;;2.60;99.90;;;;;;5117566;28;20440;-77
2022/02/13 08:34:33;;;;;;;275.67;24.90;;;2.60;99.90;;;;;;5116002;28;20452;-77
2022/02/13 08:37:01;;;;;;;124.13;21.77;;;2.60;99.90;;;;;;5117000;28;20932;-76
2022/02/13 08:39:29;;;;;;;421.77;30.33;;;2.70;99.90;;;;;;5111687;28;20967;-76
2022/02/13 08:41:57;;;;;;;249.20;31.63;;;2.70;99.90;;;;;;5095530;28;20872;-77
2022/02/13 08:44:25;;;;;;;530.83;37.63;;;2.80;99.90;;;;;;5095342;28;20460;-77
2022/02/13 08:46:53;;;;;;;100.80;23.63;;;2.80;99.90;;;;;;5096774;28;20440;-76
2022/02/13 08:49:23;;;;;;;373.77;42.40;;;2.90;99.90;;;;;;5095247;28;20454;-77
2022/02/13 08:51:51;;;;;;;330.77;28.03;;;2.80;99.90;;;;;;5098354;28;20448;-77
2022/02/13 08:54:19;;;;;;;280.00;23.53;;;2.90;99.90;;;;;;5095250;28;20440;-76
2022/02/13 08:56:47;;;;;;;253.43;26.37;;;3.00;99.90;;;;;;5095367;28;20491;-77
2022/02/13 08:59:17;;;;;;;214.17;33.00;;;3.00;99.90;;;;;;5103307;28;20494;-77
2022/02/13 09:01:45;;;;;;;436.17;22.80;;;3.10;99.90;;;;;;5116964;28;20537;-76
2022/02/13 09:04:13;;;;;;;292.33;24.57;;;3.10;99.90;;;;;;5115355;28;20466;-77
2022/02/13 09:06:42;;;;;;;213.70;21.43;;;3.20;99.90;;;;;;5116921;28;20532;-77
2022/02/13 09:09:12;;;;;;;325.97;29.23;;;3.20;99.90;;;;;;5116844;28;20456;-77
2022/02/13 09:11:40;;;;;;;276.70;22.33;;;3.30;99.90;;;;;;5114893;28;20489;-77
2022/02/13 09:14:09;;;;;;;179.00;17.33;;;3.30;99.90;;;;;;5115329;28;20511;-77
2022/02/13 09:16:37;;;;;;;201.57;18.73;;;3.40;99.90;;;;;;5105420;28;20462;-77
2022/02/13 09:19:07;;;;;;;185.13;25.00;;;3.50;99.90;;;;;;5096809;28;20439;-77
2022/02/13 09:21:36;;;;;;;256.67;27.53;;;3.50;99.90;;;;;;5101916;28;20530;-77
2022/02/13 09:24:06;;;;;;;195.03;18.33;;;3.60;99.90;;;;;;5114989;28;20469;-77
2022/02/13 09:26:35;;;;;;;498.83;51.67;;;3.70;99.90;;;;;;5115777;28;20472;-77
2022/02/13 09:29:04;;;;;;;131.47;20.63;;;3.70;99.90;;;;;;5117442;28;20561;-77
2022/02/13 09:31:32;;;;;;;330.57;40.10;;;3.80;99.90;;;;;;5117046;28;20995;-77
2022/02/13 09:34:00;;;;;;;639.03;103.20;;;3.90;99.90;;;;;;5116078;28;20435;-77
2022/02/13 09:36:28;;;;;;;365.57;25.07;;;3.90;99.90;;;;;;5109147;28;20451;-77
2022/02/13 09:38:56;;;;;;;304.03;23.50;;;3.90;99.90;;;;;;5103508;28;20464;-77
2022/02/13 09:41:26;;;;;;;324.53;19.63;;;4.00;99.90;;;;;;5097247;28;20462;-77
2022/02/13 09:43:56;;;;;;;417.00;38.40;;;4.00;99.90;;;;;;5095207;28;20478;-77
2022/02/13 09:46:25;;;;;;;333.93;21.87;;;4.10;99.90;;;;;;5094594;28;20531;-77
2022/02/13 09:48:56;;;;;;;456.60;25.17;;;4.10;99.90;;;;;;5095297;28;20436;-76
2022/02/13 09:51:24;;;;;;;696.70;39.83;;;4.20;99.90;;;;;;5093949;28;20839;-76
2022/02/13 09:53:53;;;;;;;854.77;50.20;;;4.30;99.90;;;;;;5094068;28;20454;-77
2022/02/13 09:56:21;;;;;;;659.83;44.00;;;4.30;99.90;;;;;;5093606;28;20461;-76
2022/02/13 09:58:50;;;;;;;394.87;29.93;;;4.40;99.90;;;;;;5097242;28;20464;-76
2022/02/13 10:01:19;;;;;;;748.07;44.17;;;4.40;99.90;;;;;;5101914;28;20464;-76
2022/02/13 10:03:49;;;;;;;656.73;50.80;;;4.50;99.90;;;;;;5093466;28;20520;-77
2022/02/13 10:06:22;;;;;;;1036.43;59.30;;;4.60;99.90;;;;;;5093607;28;20440;-76
2022/02/13 10:08:52;;;;;;;1273.67;110.73;;;4.60;99.90;;;;;;5093623;28;20519;-77
2022/02/13 10:11:23;;;;;;;1775.20;152.23;;;4.70;99.90;;;;;;5093851;28;20466;-77
2022/02/13 10:13:55;;;;;;;1938.87;161.57;;;4.70;99.90;;;;;;5093700;28;20436;-77
2022/02/13 10:16:26;;;;;;;1161.27;93.90;;;4.80;99.90;;;;;;5098550;28;20549;-77
2022/02/13 10:18:57;;;;;;;1611.20;134.87;;;4.80;99.90;;;;;;5114181;28;20474;-77
2022/02/13 10:21:45;;;;;;;1698.70;166.93;;;4.90;99.90;;;;;;5105821;28;20899;-77
2022/02/13 10:24:22;;;;;;;1326.97;99.90;;;4.90;99.90;;;;;;5092969;28;20461;-77
2022/02/13 10:27:06;;;;;;;1377.13;130.90;;;4.90;99.90;;;;;;5093382;28;20428;-77
2022/02/13 10:29:37;;;;;;;1682.63;130.60;;;5.00;99.90;;;;;;5093034;28;20536;-77
2022/02/13 10:32:15;;;;;;;1692.67;98.50;;;5.00;99.90;;;;;;5093668;28;20882;-76
2022/02/13 10:35:03;;;;;;;952.97;73.93;;;5.10;99.90;;;;;;5094254;28;20464;-77
2022/02/13 10:37:42;;;;;;;1576.90;120.37;;;5.10;99.90;;;;;;5094425;28;20446;-77
2022/02/13 10:40:12;;;;;;;846.30;89.63;;;5.20;99.90;;;;;;5101145;28;20558;-77
2022/02/13 10:42:40;;;;;;;1649.87;82.00;;;5.20;99.90;;;;;;5115547;28;20442;-77
2022/02/13 10:45:22;;;;;;;1597.83;682.13;;;5.20;99.90;;;;;;5117242;28;20830;-78
2022/02/13 10:47:57;;;;;;;1889.43;163.00;;;5.30;99.90;;;;;;5117706;28;20459;-78
2022/02/13 10:50:27;;;;;;;1999.90;213.07;;;5.40;99.90;;;;;;5119005;28;20471;-78
2022/02/13 10:52:59;;;;;;;1999.90;435.77;;;5.40;99.90;;;;;;5117332;28;20458;-78
2022/02/13 10:55:27;;;;;;;1999.90;548.80;;;5.50;99.90;;;;;;5118640;28;20517;-78
2022/02/13 10:57:57;;;;;;;1999.90;999.90;;;5.50;99.90;;;;;;5118950;28;20470;-78
2022/02/13 11:00:30;;;;;;;1999.90;999.90;;;5.60;99.90;;;;;;5117190;28;20504;-78
2022/02/13 11:03:04;;;;;;;1999.90;999.90;;;5.60;99.90;;;;;;5101590;28;20455;-78
2022/02/13 11:05:32;;;;;;;1999.90;999.90;;;5.60;99.90;;;;;;5096625;28;20464;-78
2022/02/13 11:08:06;;;;;;;1999.90;999.90;;;5.70;99.90;;;;;;5097442;28;20487;-78
2022/02/13 11:10:40;;;;;;;1999.90;424.23;;;5.70;99.90;;;;;;5101785;28;20522;-78
2022/02/13 11:13:09;;;;;;;1999.90;541.63;;;5.80;99.90;;;;;;5117639;28;20467;-78
2022/02/13 11:15:42;;;;;;;1999.90;559.00;;;5.90;99.90;;;;;;5118192;28;20873;-78
2022/02/13 11:18:17;;;;;;;1999.90;999.90;;;5.90;99.90;;;;;;5119548;28;20492;-78
2022/02/13 11:20:46;;;;;;;1999.90;563.53;;;6.00;99.90;;;;;;5117375;28;21036;-78
2022/02/13 11:23:21;;;;;;;1999.90;477.43;;;6.00;99.90;;;;;;5119576;28;20415;-78
2022/02/13 11:25:52;;;;;;;1999.90;676.80;;;6.10;99.90;;;;;;5118806;28;20463;-78
2022/02/13 11:28:24;;;;;;;1999.90;775.93;;;6.20;99.90;;;;;;5099821;28;20498;-78
2022/02/13 11:31:00;;;;;;;1999.90;736.80;;;6.20;99.90;;;;;;5096988;28;21011;-78
2022/02/13 11:33:45;;;;;;;1999.90;771.90;;;6.30;99.90;;;;;;5096483;28;20850;-78
2022/02/13 11:36:32;;;;;;;1999.90;581.13;;;6.40;99.90;;;;;;5100681;28;20448;-78
2022/02/13 11:39:00;;;;;;;1999.90;673.00;;;6.40;99.90;;;;;;5098137;28;20491;-78
2022/02/13 11:42:05;;;;;;;1999.90;738.23;;;6.50;99.90;;;;;;5097845;28;20483;-78
2022/02/13 11:44:37;;;;;;;1999.90;597.80;;;6.50;99.90;;;;;;5097452;28;20472;-78
2022/02/13 11:47:09;;;;;;;1999.90;477.73;;;6.50;99.90;;;;;;5095070;28;20861;-78
2022/02/13 11:50:25;;;;;;;1999.90;813.40;;;6.60;99.90;;;;;;5097483;28;20567;-78
2022/02/13 11:53:02;;;;;;;1999.90;721.23;;;6.60;99.90;;;;;;5115998;28;20471;-78
2022/02/13 11:55:37;;;;;;;1999.90;846.97;;;6.70;99.90;;;;;;5111442;28;20439;-78
2022/02/13 11:58:13;;;;;;;1999.90;890.40;;;6.70;99.90;;;;;;5117354;28;21047;-78
2022/02/13 12:00:47;;;;;;;1999.90;999.90;;;6.80;99.90;;;;;;5117293;28;20451;-78
2022/02/13 12:03:24;;;;;;;1999.90;614.33;;;6.80;99.90;;;;;;5115670;28;20442;-78
2022/02/13 12:06:22;;;;;;;1999.90;999.90;;;6.90;99.90;;;;;;5117282;28;20475;-78
2022/02/13 12:08:50;;;;;;;1999.90;558.43;;;7.00;99.90;;;;;;5107055;28;20535;-77
2022/02/13 12:11:19;;;;;;;1999.90;690.60;;;7.00;99.90;;;;;;5102339;28;20503;-78
2022/02/13 12:13:47;;;;;;;1999.90;999.90;;;7.00;99.90;;;;;;5112784;28;20844;-77
2022/02/13 12:16:15;;;;;;;1999.90;657.60;;;7.10;99.90;;;;;;5093889;28;20481;-77
2022/02/13 12:18:51;;;;;;;1999.90;688.83;;;7.10;99.90;;;;;;5092574;28;20551;-77
2022/02/13 12:21:27;;;;;;;1999.90;583.50;;;7.20;99.90;;;;;;5092893;28;20558;-77
2022/02/13 12:24:02;;;;;;;1999.90;999.90;;;7.20;99.90;;;;;;5094936;28;20796;-77
2022/02/13 12:26:31;;;;;;;1999.90;867.13;;;7.20;99.90;;;;;;5093243;28;20494;-77
2022/02/13 12:28:59;;;;;;;1999.90;617.27;;;7.30;99.90;;;;;;5092714;28;20441;-77
2022/02/13 12:31:27;;;;;;;1999.90;843.13;;;7.30;99.90;;;;;;5095607;28;20572;-78
2022/02/13 12:33:57;;;;;;;1999.90;699.27;;;7.30;99.90;;;;;;5093842;28;20436;-77
2022/02/13 12:36:28;;;;;;;1999.90;672.53;;;7.40;99.90;;;;;;5091852;28;20524;-77
2022/02/13 12:39:00;;;;;;;1999.90;702.70;;;7.40;99.90;;;;;;5092657;28;20467;-77
2022/02/13 12:41:29;;;;;;;1999.90;722.00;;;7.50;99.90;;;;;;5093206;28;20841;-78
2022/02/13 12:43:57;;;;;;;1999.90;667.47;;;7.60;99.90;;;;;;5111182;28;20862;-78
2022/02/13 12:46:26;;;;;;;1999.90;728.70;;;7.60;99.90;;;;;;5096631;28;20996;-77